Time;durP1;ratioP1;P1;durP2;ratioP2;P2;SDS_P1;SDS_P2;PMS_P1;PMS_P2;Temp;Humidity;BMP_temperature;BMP_pressure;BME280_temperature;BME280_humidity;BME280_pressure;Samples;Min_cycle;Max_cycle;Signal;HPM_P1;HPM_P2
2022/11/29 00:01:55;;;;;;;28.13;20.27;;;;;;;7.00;100.00;100174.34;5017355;28;20281;-73
2022/11/29 00:04:21;;;;;;;27.83;19.55;;;;;;;6.96;100.00;100172.69;5019832;28;20755;-73
2022/11/29 00:06:49;;;;;;;28.77;19.63;;;;;;;6.99;100.00;100169.91;5019599;28;20574;-74
2022/11/29 00:09:17;;;;;;;32.63;20.02;;;;;;;6.99;100.00;100170.78;5013968;28;20195;-73
2022/11/29 00:14:29;;;;;;;26.17;18.88;;;;;;;6.98;100.00;100168.16;5013671;28;20206;-74
2022/11/29 00:17:00;;;;;;;27.33;19.48;;;;;;;6.93;100.00;100167.44;5020876;28;20203;-72
2022/11/29 00:19:27;;;;;;;26.80;19.17;;;;;;;6.96;100.00;100162.84;5023278;28;20305;-73
2022/11/29 00:21:55;;;;;;;26.08;18.80;;;;;;;6.93;100.00;100162.97;5023996;28;20297;-74
2022/11/29 00:24:22;;;;;;;27.17;19.70;;;;;;;6.94;100.00;100155.78;5019995;28;20653;-73
2022/11/29 00:26:49;;;;;;;30.27;19.98;;;;;;;6.94;100.00;100162.00;5020667;28;20281;-73
2022/11/29 00:29:16;;;;;;;26.55;18.38;;;;;;;6.94;100.00;100167.38;5012956;28;20622;-73
2022/11/29 00:31:43;;;;;;;28.23;20.27;;;;;;;6.93;100.00;100172.81;5013124;28;20207;-73
2022/11/29 00:34:11;;;;;;;30.65;19.65;;;;;;;6.93;100.00;100170.13;5021664;28;20215;-72
2022/11/29 00:36:38;;;;;;;24.20;18.10;;;;;;;6.93;100.00;100170.13;5033493;28;20752;-72
2022/11/29 00:39:10;;;;;;;31.30;19.85;;;;;;;6.94;100.00;100166.50;5021918;28;20231;-74
2022/11/29 00:41:37;;;;;;;28.35;20.02;;;;;;;6.96;100.00;100162.84;5011354;28;20237;-75
2022/11/29 00:44:03;;;;;;;29.23;21.23;;;;;;;6.99;100.00;100164.56;5009539;28;20225;-72
2022/11/29 00:46:30;;;;;;;26.95;19.38;;;;;;;7.00;100.00;100167.16;5027425;28;20206;-72
2022/11/29 00:48:56;;;;;;;25.90;18.75;;;;;;;6.99;100.00;100162.75;5022855;28;20205;-73
2022/11/29 00:51:23;;;;;;;28.58;19.75;;;;;;;6.99;100.00;100164.56;5016310;28;20238;-72
2022/11/29 00:53:49;;;;;;;28.25;18.67;;;;;;;6.98;100.00;100168.16;5017831;28;20253;-73
2022/11/29 00:56:17;;;;;;;24.70;17.27;;;;;;;7.01;100.00;100168.03;5010392;28;20202;-71
2022/11/29 00:58:44;;;;;;;22.60;17.30;;;;;;;7.02;100.00;100167.13;5015409;28;20246;-72
2022/11/29 01:01:11;;;;;;;29.40;19.35;;;;;;;7.03;100.00;100169.75;5017112;28;20202;-72
2022/11/29 01:03:37;;;;;;;25.13;17.65;;;;;;;7.06;100.00;100168.78;5016892;28;20226;-74
2022/11/29 01:06:06;;;;;;;26.27;18.58;;;;;;;7.05;100.00;100170.56;5020836;28;20578;-73
2022/11/29 01:08:32;;;;;;;27.00;19.08;;;;;;;7.07;100.00;100170.50;5026968;28;20656;-71
2022/11/29 01:11:08;;;;;;;29.73;19.13;;;;;;;7.08;100.00;100174.97;5030350;28;20198;-72
2022/11/29 01:13:36;;;;;;;27.60;19.35;;;;;;;7.08;100.00;100169.59;5030347;28;20317;-72
2022/11/29 01:16:04;;;;;;;24.90;19.40;;;;;;;7.04;100.00;100171.50;5027931;28;20210;-72
2022/11/29 01:18:31;;;;;;;25.52;18.73;;;;;;;7.10;100.00;100175.78;5018449;28;20278;-74
2022/11/29 01:21:00;;;;;;;27.70;18.92;;;;;;;7.08;100.00;100183.84;5013412;28;20216;-73
2022/11/29 01:23:27;;;;;;;29.70;18.77;;;;;;;7.06;100.00;100182.16;5026805;28;20308;-73
2022/11/29 01:25:59;;;;;;;26.00;17.70;;;;;;;7.05;100.00;100188.44;5028059;28;20668;-73
2022/11/29 01:28:26;;;;;;;25.90;19.25;;;;;;;7.08;100.00;100178.50;5016403;28;20213;-73
2022/11/29 01:30:54;;;;;;;27.02;19.88;;;;;;;7.06;100.00;100184.84;5027445;28;20208;-75
2022/11/29 01:33:21;;;;;;;25.95;17.70;;;;;;;7.07;100.00;100186.59;5036006;28;20229;-73
2022/11/29 01:35:49;;;;;;;26.65;19.50;;;;;;;7.07;100.00;100184.78;5035950;28;20204;-74
2022/11/29 01:38:16;;;;;;;25.80;18.27;;;;;;;7.10;100.00;100189.16;5017336;28;20202;-74
2022/11/29 01:40:43;;;;;;;25.58;19.15;;;;;;;7.13;100.00;100190.88;5027534;28;20218;-75
2022/11/29 01:43:15;;;;;;;23.92;17.70;;;;;;;7.13;100.00;100185.50;5017910;28;20214;-73
2022/11/29 01:45:41;;;;;;;24.88;18.48;;;;;;;7.11;100.00;100190.91;5016976;28;20207;-72
2022/11/29 01:48:10;;;;;;;25.33;17.42;;;;;;;7.10;100.00;100197.22;5023047;28;20574;-74
2022/11/29 01:50:38;;;;;;;24.65;18.48;;;;;;;7.11;100.00;100196.25;4998986;28;20203;-73
2022/11/29 01:53:05;;;;;;;30.83;19.30;;;;;;;7.10;100.00;100200.75;5022472;28;20313;-74
2022/11/29 01:55:35;;;;;;;26.27;19.15;;;;;;;7.14;100.00;100195.28;5015509;28;20288;-73
2022/11/29 01:58:04;;;;;;;27.13;17.88;;;;;;;7.13;100.00;100197.09;5014250;28;20292;-74
2022/11/29 02:00:31;;;;;;;28.70;19.15;;;;;;;7.13;100.00;100190.88;5024002;28;20228;-74
2022/11/29 02:03:03;;;;;;;29.50;19.15;;;;;;;7.12;100.00;100189.97;5023396;28;20727;-71
2022/11/29 02:05:33;;;;;;;22.25;17.08;;;;;;;7.14;100.00;100192.59;5023179;28;20230;-72
2022/11/29 02:08:01;;;;;;;25.60;17.92;;;;;;;7.14;100.00;100192.59;4996739;28;20694;-74
2022/11/29 02:10:44;;;;;;;25.38;18.77;;;;;;;7.16;100.00;100194.28;5022830;28;20194;-72
2022/11/29 02:13:21;;;;;;;27.95;18.23;;;;;;;7.17;100.00;100189.81;5016126;28;20228;-73
2022/11/29 02:15:56;;;;;;;24.92;19.38;;;;;;;7.20;100.00;100195.94;5016079;28;20195;-72
2022/11/29 02:18:32;;;;;;;23.65;17.80;;;;;;;7.19;100.00;100196.88;5014340;28;20205;-73
2022/11/29 02:21:22;;;;;;;30.20;19.45;;;;;;;7.12;100.00;100194.44;5017724;28;20211;-75
2022/11/29 02:24:11;;;;;;;27.63;18.77;;;;;;;7.09;100.00;100198.13;5020120;28;20222;-74
2022/11/29 02:27:10;;;;;;;26.50;18.80;;;;;;;7.09;100.00;100196.31;5012885;28;20210;-74
2022/11/29 02:30:06;;;;;;;28.98;19.27;;;;;;;7.06;100.00;100195.56;4956827;28;20211;-73
2022/11/29 02:33:09;;;;;;;26.70;17.45;;;;;;;7.00;100.00;100193.06;4974662;28;20722;-71
2022/11/29 02:36:18;;;;;;;27.17;19.58;;;;;;;7.05;100.00;100200.00;4955339;28;20207;-74
2022/11/29 02:39:07;;;;;;;22.50;16.40;;;;;;;7.04;100.00;100197.41;4938956;28;20304;-73
2022/11/29 02:41:52;;;;;;;25.73;17.55;;;;;;;7.05;100.00;100193.78;4963349;28;20208;-74
2022/11/29 02:44:42;;;;;;;27.02;19.05;;;;;;;7.00;100.00;100199.31;4960267;28;20240;-74
2022/11/29 02:47:20;;;;;;;26.13;17.58;;;;;;;6.99;100.00;100194.88;4949065;28;20674;-73
2022/11/29 02:50:13;;;;;;;25.92;17.95;;;;;;;6.98;100.00;100197.59;4944809;28;20207;-72
2022/11/29 02:52:52;;;;;;;25.33;18.38;;;;;;;7.00;100.00;100198.44;4960533;28;20257;-74
2022/11/29 02:55:25;;;;;;;25.95;18.00;;;;;;;6.98;100.00;100194.94;4963613;28;20227;-72
2022/11/29 02:57:58;;;;;;;23.92;19.48;;;;;;;6.93;100.00;100197.75;4971840;28;20184;-73
2022/11/29 03:00:25;;;;;;;24.08;17.80;;;;;;;6.91;100.00;100196.06;4965793;28;20232;-72
2022/11/29 03:02:59;;;;;;;27.60;18.50;;;;;;;6.89;100.00;100199.66;4961101;28;20232;-74
2022/11/29 03:05:37;;;;;;;22.63;17.50;;;;;;;6.92;100.00;100200.47;4995463;28;20206;-74
2022/11/29 03:08:13;;;;;;;24.90;18.08;;;;;;;6.90;100.00;100205.91;5011675;28;20198;-74
2022/11/29 03:10:51;;;;;;;22.55;17.45;;;;;;;6.92;100.00;100205.84;5011142;28;20212;-73
2022/11/29 03:13:24;;;;;;;25.55;18.50;;;;;;;6.91;100.00;100206.78;5023209;28;20311;-73
2022/11/29 03:15:58;;;;;;;25.98;18.23;;;;;;;6.89;100.00;100210.38;5011964;28;20198;-73
2022/11/29 03:18:35;;;;;;;25.60;18.23;;;;;;;6.91;100.00;100209.47;5010336;28;20207;-71
2022/11/29 03:21:17;;;;;;;25.85;19.00;;;;;;;6.93;100.00;100210.28;5008567;28;20309;-74
2022/11/29 03:23:48;;;;;;;26.42;18.92;;;;;;;6.92;100.00;100212.09;5019700;28;20222;-73
2022/11/29 03:26:18;;;;;;;26.75;18.42;;;;;;;6.93;100.00;100221.00;5011361;28;20209;-73
2022/11/29 03:28:52;;;;;;;27.40;20.27;;;;;;;6.93;100.00;100219.19;5009785;28;20206;-74
2022/11/29 03:31:24;;;;;;;26.70;18.58;;;;;;;6.93;100.00;100221.00;5010750;28;20207;-73
2022/11/29 03:33:58;;;;;;;24.50;17.40;;;;;;;6.93;100.00;100226.34;5026787;28;20225;-73
2022/11/29 03:36:35;;;;;;;26.77;18.77;;;;;;;6.94;100.00;100220.06;5021006;28;20200;-73
2022/11/29 03:39:10;;;;;;;26.42;17.88;;;;;;;6.96;100.00;100219.06;5023284;28;20283;-73
2022/11/29 03:41:43;;;;;;;26.75;18.88;;;;;;;6.98;100.00;100221.69;5032958;28;20205;-74
2022/11/29 03:44:15;;;;;;;23.55;18.13;;;;;;;6.93;100.00;100219.19;5008641;28;20220;-74
2022/11/29 03:46:50;;;;;;;27.92;19.05;;;;;;;6.93;100.00;100229.88;5024043;28;20202;-73
2022/11/29 03:49:23;;;;;;;28.38;18.52;;;;;;;6.92;100.00;100225.47;5019067;28;20200;-74
2022/11/29 03:52:02;;;;;;;24.90;18.05;;;;;;;6.91;100.00;100233.53;5027015;28;20202;-73
2022/11/29 03:54:42;;;;;;;25.02;18.88;;;;;;;6.94;100.00;100238.78;5020411;28;20212;-75
2022/11/29 03:57:09;;;;;;;25.38;18.80;;;;;;;6.95;100.00;100237.88;5029783;28;20190;-73
2022/11/29 03:59:50;;;;;;;24.25;16.60;;;;;;;6.97;100.00;100239.56;5019965;28;20221;-74
2022/11/29 04:02:49;;;;;;;26.23;18.40;;;;;;;6.97;100.00;100236.03;4983861;28;1110193;-75
2022/11/29 04:05:44;;;;;;;25.70;17.85;;;;;;;6.99;100.00;100235.06;5020418;28;20573;-76
2022/11/29 04:08:46;;;;;;;29.42;18.98;;;;;;;6.98;100.00;100240.44;4999013;28;20195;-75
2022/11/29 04:11:31;;;;;;;23.95;18.27;;;;;;;6.99;100.00;100236.88;4931060;29;20203;-74
2022/11/29 04:14:27;;;;;;;26.00;18.70;;;;;;;7.05;100.00;100231.28;4926486;29;20225;-74
2022/11/29 04:17:19;;;;;;;24.30;18.40;;;;;;;7.03;100.00;100227.78;4930523;29;20726;-72
2022/11/29 04:20:25;;;;;;;24.52;18.33;;;;;;;7.03;100.00;100233.13;4934033;29;20232;-74
2022/11/29 04:23:37;;;;;;;27.30;19.52;;;;;;;7.07;100.00;100234.78;4931564;29;20224;-74
2022/11/29 04:26:36;;;;;;;28.25;17.95;;;;;;;7.08;100.00;100239.22;4923899;29;20201;-74
2022/11/29 04:29:15;;;;;;;25.98;18.45;;;;;;;7.08;100.00;100245.44;4930846;29;20288;-74
2022/11/29 04:32:03;;;;;;;27.42;17.80;;;;;;;7.11;100.00;100244.47;4939425;29;20217;-74
2022/11/29 04:34:45;;;;;;;23.40;17.58;;;;;;;7.10;100.00;100246.28;4929731;29;20216;-74
2022/11/29 04:37:31;;;;;;;24.85;17.60;;;;;;;7.09;100.00;100244.50;4940565;29;20211;-75
2022/11/29 04:40:15;;;;;;;30.77;20.55;;;;;;;7.08;100.00;100252.63;4935874;29;20330;-73
2022/11/29 04:43:08;;;;;;;25.77;18.95;;;;;;;7.05;100.00;100258.91;4926254;29;20228;-72
2022/11/29 04:46:08;;;;;;;23.52;17.75;;;;;;;7.06;100.00;100260.69;4930583;29;20292;-72
2022/11/29 04:48:51;;;;;;;25.40;16.85;;;;;;;7.07;100.00;100261.56;4989298;28;20208;-74
2022/11/29 04:51:31;;;;;;;27.38;18.15;;;;;;;7.06;100.00;100260.69;5015194;28;20207;-72
2022/11/29 04:54:09;;;;;;;27.00;19.00;;;;;;;7.07;100.00;100261.56;5018414;28;20688;-75
2022/11/29 04:56:42;;;;;;;29.73;19.90;;;;;;;7.05;100.00;100260.72;5014460;28;20622;-72
2022/11/29 04:59:15;;;;;;;31.42;19.23;;;;;;;7.04;100.00;100267.91;5014147;28;20233;-71
2022/11/29 05:01:56;;;;;;;30.65;19.13;;;;;;;7.02;100.00;100274.22;5018718;28;20210;-72
2022/11/29 05:04:31;;;;;;;27.80;18.42;;;;;;;7.01;100.00;100284.06;5022727;28;20288;-75
2022/11/29 05:07:05;;;;;;;28.35;18.55;;;;;;;7.04;100.00;100285.78;5018538;28;20201;-71
2022/11/29 05:09:44;;;;;;;27.05;18.35;;;;;;;7.04;100.00;100283.09;5030174;28;20301;-73
2022/11/29 05:12:20;;;;;;;23.80;17.10;;;;;;;7.05;100.00;100290.19;5025093;28;20214;-72
2022/11/29 05:15:09;;;;;;;28.08;19.10;;;;;;;7.07;100.00;100299.06;5026552;28;20201;-74
2022/11/29 05:17:47;;;;;;;28.67;18.15;;;;;;;7.09;100.00;100290.03;5020925;28;20205;-74
2022/11/29 05:20:34;;;;;;;30.52;21.40;;;;;;;7.12;100.00;100289.06;5012188;28;20230;-72
2022/11/29 05:23:23;;;;;;;48.90;30.88;;;;;;;7.14;100.00;100292.56;5013658;28;20218;-74
2022/11/29 05:25:57;;;;;;;45.92;30.13;;;;;;;7.10;100.00;100290.94;5020018;28;20265;-73
2022/11/29 05:28:30;;;;;;;39.53;24.88;;;;;;;7.07;100.00;100294.56;5016844;28;20680;-75
2022/11/29 05:31:11;;;;;;;39.25;24.30;;;;;;;7.09;100.00;100302.56;5018956;28;20197;-73
2022/11/29 05:34:13;;;;;;;29.45;18.85;;;;;;;7.10;100.00;100299.84;5020710;28;20225;-75
2022/11/29 05:36:45;;;;;;;24.88;17.25;;;;;;;7.10;100.00;100304.31;5001343;28;20205;-71
2022/11/29 05:39:33;;;;;;;28.95;18.23;;;;;;;7.06;100.00;100305.34;5024800;28;20209;-73
2022/11/29 05:42:18;;;;;;;25.00;17.35;;;;;;;7.08;100.00;100301.69;5021359;28;20206;-75
2022/11/29 05:44:48;;;;;;;24.30;18.35;;;;;;;7.06;100.00;100305.34;5018666;28;20202;-73
2022/11/29 05:47:21;;;;;;;27.13;17.20;;;;;;;7.08;100.00;100319.56;5022324;28;20257;-75
2022/11/29 05:50:03;;;;;;;23.90;17.75;;;;;;;7.10;100.00;100317.72;5006313;28;20645;-73
2022/11/29 05:52:41;;;;;;;22.90;16.58;;;;;;;7.10;100.00;100313.22;5015388;28;20234;-75
2022/11/29 05:55:23;;;;;;;25.70;18.20;;;;;;;7.10;100.00;100315.03;5026375;28;20690;-75
2022/11/29 05:57:57;;;;;;;26.30;17.83;;;;;;;7.04;100.00;100309.88;5018635;28;20708;-74
2022/11/29 06:00:27;;;;;;;27.20;18.63;;;;;;;7.03;100.00;100313.47;5013285;28;20241;-74
2022/11/29 06:02:59;;;;;;;25.95;17.35;;;;;;;7.05;100.00;100319.66;5033628;22;20326;-70
2022/11/29 06:05:34;;;;;;;27.05;19.48;;;;;;;7.08;100.00;100312.41;5025061;28;20312;-72
2022/11/29 06:08:06;;;;;;;28.70;20.02;;;;;;;7.08;100.00;100323.13;5029165;28;20212;-72
2022/11/29 06:10:38;;;;;;;37.92;25.80;;;;;;;7.08;100.00;100331.16;5025666;28;20256;-71
2022/11/29 06:13:16;;;;;;;33.90;25.33;;;;;;;7.12;100.00;100320.31;5032287;28;20197;-72
2022/11/29 06:16:03;;;;;;;39.00;25.30;;;;;;;7.15;100.00;100333.63;5022800;28;20205;-74
2022/11/29 06:18:45;;;;;;;32.17;19.70;;;;;;;7.10;100.00;100336.47;5008904;28;20211;-72
2022/11/29 06:21:24;;;;;;;30.83;20.63;;;;;;;7.12;100.00;100336.41;5028093;28;20233;-72
2022/11/29 06:24:17;;;;;;;32.88;20.48;;;;;;;7.10;100.00;100336.47;5030617;28;20217;-75
2022/11/29 06:27:05;;;;;;;28.15;19.00;;;;;;;7.08;100.00;100336.50;5016265;28;20578;-72
2022/11/29 06:29:40;;;;;;;31.52;18.48;;;;;;;7.07;100.00;100337.41;5009383;28;20289;-71
2022/11/29 06:32:20;;;;;;;32.55;20.10;;;;;;;7.07;100.00;100341.91;5023147;28;20200;-73
2022/11/29 06:34:53;;;;;;;32.55;20.58;;;;;;;7.08;100.00;100336.50;5035615;28;20229;-72
2022/11/29 06:37:27;;;;;;;27.48;18.70;;;;;;;7.07;100.00;100334.72;5036145;28;20276;-73
2022/11/29 06:39:54;;;;;;;35.78;21.50;;;;;;;7.06;100.00;100334.81;5037260;28;20185;-72
2022/11/29 06:42:21;;;;;;;39.55;24.02;;;;;;;7.04;100.00;100333.97;5038367;28;20205;-74
2022/11/29 06:44:48;;;;;;;41.05;21.88;;;;;;;7.06;100.00;100337.47;5037666;28;20753;-74
2022/11/29 06:47:22;;;;;;;37.13;22.90;;;;;;;7.08;100.00;100341.00;5038124;28;20205;-73
2022/11/29 06:49:53;;;;;;;41.10;24.85;;;;;;;7.11;100.00;100340.88;5036586;28;20286;-73
2022/11/29 06:52:36;;;;;;;37.50;24.48;;;;;;;7.12;100.00;100337.25;5036160;28;20580;-76
2022/11/29 06:55:12;;;;;;;37.42;21.65;;;;;;;7.15;100.00;100345.22;5035380;28;20229;-76
2022/11/29 06:57:56;;;;;;;42.70;22.70;;;;;;;7.15;100.00;100345.22;5034600;28;20193;-77
2022/11/29 07:00:26;;;;;;;45.47;23.38;;;;;;;7.14;100.00;100350.63;5034542;28;20217;-74
2022/11/29 07:03:06;;;;;;;40.17;24.48;;;;;;;7.15;100.00;100350.56;5034878;28;20209;-74
2022/11/29 07:05:34;;;;;;;45.38;24.10;;;;;;;7.13;100.00;100356.91;5035075;28;20186;-73
2022/11/29 07:08:06;;;;;;;36.97;21.98;;;;;;;7.16;100.00;100357.66;5034266;28;20241;-74
2022/11/29 07:10:37;;;;;;;43.75;22.83;;;;;;;7.14;100.00;100364.88;5035897;28;20205;-75
2022/11/29 07:13:05;;;;;;;37.15;21.35;;;;;;;7.18;100.00;100371.91;5035279;28;20191;-73
2022/11/29 07:15:32;;;;;;;31.30;20.63;;;;;;;7.16;100.00;100368.38;5035035;28;20217;-75
2022/11/29 07:18:25;;;;;;;35.65;22.50;;;;;;;7.17;100.00;100366.56;5039261;28;20212;-76
2022/11/29 07:21:03;;;;;;;32.45;20.65;;;;;;;7.22;100.00;100368.19;5034663;28;20312;-73
2022/11/29 07:23:36;;;;;;;39.55;21.40;;;;;;;7.23;100.00;100369.94;5034784;28;20228;-75
2022/11/29 07:26:16;;;;;;;33.63;20.50;;;;;;;7.22;100.00;100375.38;5034607;28;20186;-74
2022/11/29 07:28:55;;;;;;;37.90;21.25;;;;;;;7.23;100.00;100387.81;5036278;28;20216;-73
2022/11/29 07:31:35;;;;;;;37.53;21.60;;;;;;;7.25;100.00;100385.97;5035593;28;20186;-73
2022/11/29 07:34:11;;;;;;;39.78;21.45;;;;;;;7.28;100.00;100375.16;5034874;28;20602;-75
2022/11/29 07:36:45;;;;;;;38.13;21.63;;;;;;;7.35;100.00;100383.88;5035542;28;20376;-73
2022/11/29 07:39:22;;;;;;;31.42;20.40;;;;;;;7.36;100.00;100388.31;5043052;28;20260;-73
2022/11/29 07:42:00;;;;;;;38.30;20.60;;;;;;;7.36;100.00;100391.88;5040892;28;20571;-74
2022/11/29 07:44:32;;;;;;;34.70;20.45;;;;;;;7.37;100.00;100382.91;5036857;28;20224;-73
2022/11/29 07:46:59;;;;;;;37.95;21.65;;;;;;;7.39;100.00;100396.25;5036761;28;20213;-73
2022/11/29 07:49:25;;;;;;;32.03;19.45;;;;;;;7.44;100.00;100399.63;5036467;28;20555;-71
2022/11/29 07:51:53;;;;;;;32.33;19.85;;;;;;;7.49;100.00;100397.72;5035281;28;20202;-73
2022/11/29 07:54:23;;;;;;;34.58;20.30;;;;;;;7.48;100.00;100404.88;5034984;28;20229;-75
2022/11/29 07:56:50;;;;;;;34.92;21.63;;;;;;;7.51;100.00;100398.53;5034138;28;20739;-73
2022/11/29 07:59:16;;;;;;;40.90;21.48;;;;;;;7.57;100.00;100408.16;5033686;28;20646;-73
2022/11/29 08:01:43;;;;;;;29.58;19.30;;;;;;;7.60;100.00;100403.59;5033797;28;20332;-73
2022/11/29 08:04:09;;;;;;;32.35;19.98;;;;;;;7.65;100.00;100404.31;5033629;28;20237;-72
2022/11/29 08:06:36;;;;;;;31.77;19.00;;;;;;;7.64;100.00;100413.28;5035016;28;20220;-72
2022/11/29 08:09:04;;;;;;;31.35;19.70;;;;;;;7.63;100.00;100410.66;5049649;28;20774;-73
2022/11/29 08:11:32;;;;;;;32.25;19.63;;;;;;;7.58;100.00;100410.81;5056458;28;20208;-73
2022/11/29 08:14:00;;;;;;;32.55;20.08;;;;;;;7.60;100.00;100417.00;5054181;28;20226;-72
2022/11/29 08:16:26;;;;;;;31.65;19.67;;;;;;;7.58;100.00;100424.22;5052803;28;20610;-72
2022/11/29 08:18:53;;;;;;;29.48;19.70;;;;;;;7.58;100.00;100420.66;5050392;28;20233;-73
2022/11/29 08:21:20;;;;;;;33.58;19.80;;;;;;;7.61;100.00;100420.53;5047445;28;20292;-72
2022/11/29 08:23:47;;;;;;;42.47;20.65;;;;;;;7.63;100.00;100437.47;5043651;28;20222;-74
2022/11/29 08:26:14;;;;;;;38.95;20.65;;;;;;;7.56;100.00;100435.91;5038819;28;20205;-73
2022/11/29 08:28:42;;;;;;;33.92;21.55;;;;;;;7.60;100.00;100438.44;5037150;28;20208;-73
2022/11/29 08:31:11;;;;;;;33.03;19.85;;;;;;;7.63;100.00;100440.13;5036613;28;20198;-72
2022/11/29 08:33:38;;;;;;;35.05;20.63;;;;;;;7.64;100.00;100441.88;5036744;28;20226;-73
2022/11/29 08:36:06;;;;;;;37.15;21.98;;;;;;;7.60;100.00;100443.81;5035956;28;20706;-74
2022/11/29 08:38:32;;;;;;;38.45;22.23;;;;;;;7.62;100.00;100444.63;5034078;28;20201;-74
2022/11/29 08:41:01;;;;;;;36.55;21.30;;;;;;;7.65;100.00;100441.84;5032585;28;20801;-72
2022/11/29 08:43:28;;;;;;;35.20;22.23;;;;;;;7.64;100.00;100442.78;5032772;28;20229;-72
2022/11/29 08:45:56;;;;;;;32.13;19.88;;;;;;;7.71;100.00;100441.66;5032845;28;20240;-73
2022/11/29 08:48:23;;;;;;;32.42;19.95;;;;;;;7.76;100.00;100452.22;5032170;28;20301;-75
2022/11/29 08:50:50;;;;;;;33.97;23.10;;;;;;;7.80;100.00;100451.19;5032684;28;20204;-73
2022/11/29 08:56:00;;;;;;;32.00;21.50;;;;;;;7.90;100.00;100459.81;4991386;28;20286;-73
2022/11/29 08:58:27;;;;;;;25.85;19.02;;;;;;;7.93;100.00;100462.38;4990668;28;20203;-73
2022/11/29 09:00:54;;;;;;;35.00;21.40;;;;;;;7.96;100.00;100477.47;4991005;28;20223;-72
2022/11/29 09:06:07;;;;;;;31.55;19.85;;;;;;;7.90;100.00;100473.22;4992805;28;20230;-72
2022/11/29 09:08:34;;;;;;;34.53;21.77;;;;;;;8.02;100.00;100480.81;4992235;28;20218;-74
2022/11/29 09:11:06;;;;;;;31.83;20.33;;;;;;;7.89;100.00;100476.78;4991958;28;20195;-74
2022/11/29 09:13:33;;;;;;;28.85;20.02;;;;;;;7.88;100.00;100472.38;4992589;28;20222;-76
2022/11/29 09:15:59;;;;;;;35.45;21.65;;;;;;;7.90;100.00;100478.56;4991436;28;20203;-74
2022/11/29 09:18:28;;;;;;;29.27;21.10;;;;;;;7.93;100.00;100482.00;4990816;28;20700;-73
2022/11/29 09:20:54;;;;;;;29.55;19.42;;;;;;;7.88;100.00;100481.28;4990994;28;20349;-73
2022/11/29 09:23:21;;;;;;;25.67;18.00;;;;;;;7.87;100.00;100478.69;4991022;28;20230;-75
2022/11/29 09:25:49;;;;;;;28.95;20.65;;;;;;;7.88;100.00;100489.34;4990953;28;20199;-71
2022/11/29 09:28:15;;;;;;;27.60;17.98;;;;;;;7.88;100.00;100481.28;4990367;28;20519;-75
2022/11/29 09:30:42;;;;;;;26.55;18.70;;;;;;;7.92;100.00;100485.63;4995032;28;20210;-73
2022/11/29 09:33:09;;;;;;;26.95;17.70;;;;;;;7.85;100.00;100485.91;5017377;28;20230;-72
2022/11/29 09:35:36;;;;;;;28.05;19.70;;;;;;;7.90;100.00;100491.97;5038910;28;20202;-74
2022/11/29 09:38:04;;;;;;;28.17;17.92;;;;;;;7.95;100.00;100503.41;5039604;28;20212;-74
2022/11/29 09:40:37;;;;;;;25.67;18.67;;;;;;;7.98;100.00;100494.41;5038867;28;20201;-73
2022/11/29 09:43:09;;;;;;;23.45;17.80;;;;;;;8.04;100.00;100510.28;5035841;28;20193;-72
2022/11/29 09:45:41;;;;;;;26.20;19.48;;;;;;;7.94;100.00;100505.22;5035970;28;20182;-73
2022/11/29 09:48:33;;;;;;;23.15;16.80;;;;;;;7.99;100.00;100509.56;5035471;28;20205;-73
2022/11/29 09:51:17;;;;;;;29.05;19.42;;;;;;;7.95;100.00;100514.16;5035910;28;20672;-72
2022/11/29 09:54:00;;;;;;;26.42;19.27;;;;;;;8.04;100.00;100511.16;5036422;28;20618;-73
2022/11/29 09:56:33;;;;;;;35.28;24.75;;;;;;;8.07;100.00;100518.22;5036370;28;20186;-74
2022/11/29 09:59:03;;;;;;;35.92;22.98;;;;;;;8.12;100.00;100513.59;5036405;28;20575;-74
2022/11/29 10:01:35;;;;;;;33.65;23.63;;;;;;;8.20;100.00;100508.84;5045530;28;20225;-72
2022/11/29 10:04:05;;;;;;;25.33;19.35;;;;;;;8.22;100.00;100515.03;5042129;28;20686;-73
2022/11/29 10:06:38;;;;;;;23.27;18.67;;;;;;;8.23;100.00;100516.81;5036639;28;20288;-73
2022/11/29 10:09:12;;;;;;;29.73;20.27;;;;;;;8.21;100.00;100515.06;5037928;28;20197;-72
2022/11/29 10:11:43;;;;;;;28.20;18.92;;;;;;;8.24;100.00;100518.53;5035839;28;20584;-73
2022/11/29 10:14:15;;;;;;;31.05;20.77;;;;;;;8.26;100.00;100513.13;5051100;28;20245;-72
2022/11/29 10:16:45;;;;;;;28.52;20.02;;;;;;;8.29;100.00;100519.25;5057202;28;20187;-73
2022/11/29 10:19:20;;;;;;;30.88;20.67;;;;;;;8.26;100.00;100514.00;5039189;28;20198;-72
2022/11/29 10:22:00;;;;;;;29.85;20.48;;;;;;;8.28;100.00;100511.28;5039302;28;20228;-71
2022/11/29 10:24:29;;;;;;;29.35;20.38;;;;;;;8.32;100.00;100519.19;5049139;28;20253;-73
2022/11/29 10:26:55;;;;;;;38.78;22.65;;;;;;;8.25;100.00;100514.06;5047423;28;20627;-74
2022/11/29 10:29:23;;;;;;;35.30;22.08;;;;;;;8.31;100.00;100508.47;5041987;28;20198;-73
2022/11/29 10:31:53;;;;;;;31.63;21.23;;;;;;;8.31;100.00;100506.66;5041400;28;20233;-76
2022/11/29 10:34:22;;;;;;;45.38;24.30;;;;;;;8.28;100.00;100506.78;5038976;28;20221;-74
2022/11/29 10:36:53;;;;;;;37.70;23.83;;;;;;;8.20;100.00;100502.59;5039185;28;20237;-74
2022/11/29 10:39:24;;;;;;;41.33;24.10;;;;;;;8.16;100.00;100496.44;5037824;28;20190;-73
2022/11/29 10:41:55;;;;;;;38.72;24.60;;;;;;;8.26;100.00;100500.59;5035503;28;20309;-73
2022/11/29 10:44:22;;;;;;;49.55;25.73;;;;;;;8.30;100.00;100496.00;5034800;28;20225;-73
2022/11/29 10:46:49;;;;;;;47.22;27.92;;;;;;;8.28;100.00;100501.41;5036310;28;20285;-74
2022/11/29 10:49:18;;;;;;;51.33;28.65;;;;;;;8.34;100.00;100493.16;5035324;28;20586;-73
2022/11/29 10:51:45;;;;;;;46.83;28.15;;;;;;;8.36;100.00;100506.50;5036770;28;20290;-73
2022/11/29 10:54:29;;;;;;;51.15;28.60;;;;;;;8.32;100.00;100507.53;5036158;28;20221;-73
2022/11/29 10:56:58;;;;;;;48.80;27.75;;;;;;;8.41;100.00;100504.59;5036470;28;20197;-72
2022/11/29 10:59:27;;;;;;;46.35;28.25;;;;;;;8.48;100.00;100505.22;5035194;28;20229;-74
2022/11/29 11:01:54;;;;;;;45.70;28.25;;;;;;;8.44;100.00;100511.66;5035891;28;20695;-74
2022/11/29 11:04:27;;;;;;;47.08;28.17;;;;;;;8.38;100.00;100507.34;5038496;28;20669;-73
2022/11/29 11:06:55;;;;;;;48.67;26.83;;;;;;;8.46;100.00;100507.13;5035349;28;20700;-73
2022/11/29 11:09:30;;;;;;;48.17;27.00;;;;;;;8.48;100.00;100508.81;5033537;28;20209;-77
2022/11/29 11:11:59;;;;;;;50.53;29.13;;;;;;;8.54;100.00;100503.22;5034472;28;20182;-74
2022/11/29 11:14:28;;;;;;;49.13;29.45;;;;;;;8.57;100.00;100513.00;5034953;28;20299;-72
2022/11/29 11:16:55;;;;;;;60.72;28.88;;;;;;;8.62;100.00;100511.00;5034332;28;20209;-74
2022/11/29 11:19:27;;;;;;;49.42;29.30;;;;;;;8.66;100.00;100512.66;5035683;28;20197;-74
2022/11/29 11:21:53;;;;;;;52.72;30.27;;;;;;;8.70;100.00;100519.66;5046947;28;20201;-74
2022/11/29 11:24:26;;;;;;;48.25;29.30;;;;;;;8.75;100.00;100524.84;5055024;28;20241;-74
2022/11/29 11:26:54;;;;;;;48.42;28.65;;;;;;;8.76;100.00;100523.94;5056181;28;20205;-72
2022/11/29 11:29:24;;;;;;;50.92;30.38;;;;;;;8.83;100.00;100520.09;5054808;28;20213;-72
2022/11/29 11:31:53;;;;;;;46.80;31.35;;;;;;;8.83;100.00;100516.53;5055453;28;20170;-72
2022/11/29 11:34:26;;;;;;;46.90;30.38;;;;;;;8.86;100.00;100525.34;5049332;28;20245;-75
2022/11/29 11:36:53;;;;;;;50.70;30.38;;;;;;;8.91;100.00;100522.50;5040660;28;20206;-72
2022/11/29 11:39:21;;;;;;;48.03;30.00;;;;;;;8.92;100.00;100535.88;5038386;28;20269;-73
2022/11/29 11:44:40;;;;;;;50.58;29.40;;;;;;;8.87;100.00;100534.31;5036609;28;20722;-73
2022/11/29 11:47:13;;;;;;;41.85;28.23;;;;;;;8.83;100.00;100538.03;5038543;28;20213;-74
2022/11/29 11:49:48;;;;;;;44.85;29.23;;;;;;;8.82;100.00;100541.63;5038116;28;20198;-72
2022/11/29 11:52:20;;;;;;;48.15;29.38;;;;;;;8.86;100.00;100541.47;5039202;28;20265;-74